sensor_id;sensor_type;location;lat;lon;timestamp;temperature;humidity
39889;DHT22;25563;50.844;4.308;2022-12-10T00:02:25;2.60;99.90
39889;DHT22;25563;50.844;4.308;2022-12-10T00:04:51;2.70;99.90
39889;DHT22;25563;50.844;4.308;2022-12-10T00:07:20;2.70;99.90
39889;DHT22;25563;50.844;4.308;2022-12-10T00:09:47;2.70;99.90
39889;DHT22;25563;50.844;4.308;2022-12-10T00:12:13;2.70;99.90
39889;DHT22;25563;50.844;4.308;2022-12-10T00:14:39;2.70;99.90
39889;DHT22;25563;50.844;4.308;2022-12-10T00:17:04;2.60;99.90
39889;DHT22;25563;50.844;4.308;2022-12-10T00:19:30;2.90;99.90
39889;DHT22;25563;50.844;4.308;2022-12-10T00:21:56;2.60;99.90
39889;DHT22;25563;50.844;4.308;2022-12-10T00:24:22;2.60;99.90
39889;DHT22;25563;50.844;4.308;2022-12-10T00:26:47;2.80;99.90
39889;DHT22;25563;50.844;4.308;2022-12-10T00:29:13;2.70;99.90
39889;DHT22;25563;50.844;4.308;2022-12-10T00:31:39;3.80;99.90
39889;DHT22;25563;50.844;4.308;2022-12-10T00:34:08;3.20;99.90
39889;DHT22;25563;50.844;4.308;2022-12-10T00:36:40;2.80;99.90
39889;DHT22;25563;50.844;4.308;2022-12-10T00:39:08;2.80;99.90
39889;DHT22;25563;50.844;4.308;2022-12-10T00:41:34;2.80;99.90
39889;DHT22;25563;50.844;4.308;2022-12-10T00:44:00;2.80;99.90
39889;DHT22;25563;50.844;4.308;2022-12-10T00:46:27;2.80;99.90
39889;DHT22;25563;50.844;4.308;2022-12-10T00:48:54;2.80;99.90
39889;DHT22;25563;50.844;4.308;2022-12-10T00:51:22;2.80;99.90
39889;DHT22;25563;50.844;4.308;2022-12-10T00:53:49;2.80;99.90
39889;DHT22;25563;50.844;4.308;2022-12-10T00:56:18;2.80;99.90
39889;DHT22;25563;50.844;4.308;2022-12-10T00:58:44;2.80;99.90
39889;DHT22;25563;50.844;4.308;2022-12-10T01:01:26;2.80;99.90
39889;DHT22;25563;50.844;4.308;2022-12-10T01:03:55;2.80;99.90
39889;DHT22;25563;50.844;4.308;2022-12-10T01:08:50;2.70;99.90
39889;DHT22;25563;50.844;4.308;2022-12-10T01:11:19;2.70;99.90
39889;DHT22;25563;50.844;4.308;2022-12-10T01:13:46;2.70;99.90
39889;DHT22;25563;50.844;4.308;2022-12-10T01:16:14;2.70;99.90
39889;DHT22;25563;50.844;4.308;2022-12-10T01:18:40;2.70;99.90
39889;DHT22;25563;50.844;4.308;2022-12-10T01:21:10;2.60;99.90
39889;DHT22;25563;50.844;4.308;2022-12-10T01:23:38;2.60;99.90
39889;DHT22;25563;50.844;4.308;2022-12-10T01:26:06;2.40;99.90
39889;DHT22;25563;50.844;4.308;2022-12-10T01:28:35;2.70;99.90
39889;DHT22;25563;50.844;4.308;2022-12-10T01:31:03;2.70;99.90
39889;DHT22;25563;50.844;4.308;2022-12-10T01:33:29;2.70;99.90
39889;DHT22;25563;50.844;4.308;2022-12-10T01:35:55;3.50;99.90
39889;DHT22;25563;50.844;4.308;2022-12-10T01:38:21;2.80;99.90
39889;DHT22;25563;50.844;4.308;2022-12-10T01:40:47;2.80;99.90
39889;DHT22;25563;50.844;4.308;2022-12-10T01:43:14;2.80;99.90
39889;DHT22;25563;50.844;4.308;2022-12-10T01:45:40;2.80;99.90
39889;DHT22;25563;50.844;4.308;2022-12-10T01:48:06;2.80;99.90
39889;DHT22;25563;50.844;4.308;2022-12-10T01:50:32;2.80;99.70
39889;DHT22;25563;50.844;4.308;2022-12-10T01:52:57;2.70;99.80
39889;DHT22;25563;50.844;4.308;2022-12-10T01:55:48;3.20;99.90
39889;DHT22;25563;50.844;4.308;2022-12-10T01:58:17;2.60;99.90
39889;DHT22;25563;50.844;4.308;2022-12-10T02:03:40;2.50;99.90
39889;DHT22;25563;50.844;4.308;2022-12-10T02:09:20;2.50;99.90
39889;DHT22;25563;50.844;4.308;2022-12-10T02:17:14;2.50;99.90
39889;DHT22;25563;50.844;4.308;2022-12-10T02:22:14;2.50;99.90
39889;DHT22;25563;50.844;4.308;2022-12-10T02:24:42;2.50;99.90
39889;DHT22;25563;50.844;4.308;2022-12-10T02:29:49;2.50;99.90
39889;DHT22;25563;50.844;4.308;2022-12-10T02:32:19;2.80;99.90
39889;DHT22;25563;50.844;4.308;2022-12-10T02:34:49;2.50;99.90
39889;DHT22;25563;50.844;4.308;2022-12-10T02:37:33;2.50;99.90
39889;DHT22;25563;50.844;4.308;2022-12-10T02:40:06;2.50;99.90
39889;DHT22;25563;50.844;4.308;2022-12-10T02:42:35;2.40;99.90
39889;DHT22;25563;50.844;4.308;2022-12-10T02:45:03;2.30;99.90
39889;DHT22;25563;50.844;4.308;2022-12-10T02:47:30;2.30;99.90
39889;DHT22;25563;50.844;4.308;2022-12-10T02:49:59;2.20;99.90
39889;DHT22;25563;50.844;4.308;2022-12-10T02:52:25;2.20;99.90
39889;DHT22;25563;50.844;4.308;2022-12-10T02:54:52;2.10;99.90
39889;DHT22;25563;50.844;4.308;2022-12-10T03:08:31;2.30;99.90
39889;DHT22;25563;50.844;4.308;2022-12-10T03:11:10;2.40;99.90
39889;DHT22;25563;50.844;4.308;2022-12-10T03:14:03;2.30;99.90
39889;DHT22;25563;50.844;4.308;2022-12-10T03:16:36;2.30;99.90
39889;DHT22;25563;50.844;4.308;2022-12-10T03:19:07;2.30;99.90
39889;DHT22;25563;50.844;4.308;2022-12-10T03:21:37;2.20;99.90
39889;DHT22;25563;50.844;4.308;2022-12-10T03:24:05;2.10;99.90
39889;DHT22;25563;50.844;4.308;2022-12-10T03:26:35;2.20;99.90
39889;DHT22;25563;50.844;4.308;2022-12-10T03:29:03;3.40;99.90
39889;DHT22;25563;50.844;4.308;2022-12-10T03:31:31;2.30;99.90
39889;DHT22;25563;50.844;4.308;2022-12-10T03:33:58;2.30;99.90
39889;DHT22;25563;50.844;4.308;2022-12-10T03:36:24;2.20;99.90
39889;DHT22;25563;50.844;4.308;2022-12-10T03:38:51;2.70;99.90
39889;DHT22;25563;50.844;4.308;2022-12-10T03:41:17;2.30;99.90
39889;DHT22;25563;50.844;4.308;2022-12-10T03:43:53;2.30;99.90
39889;DHT22;25563;50.844;4.308;2022-12-10T03:46:19;2.40;99.90
39889;DHT22;25563;50.844;4.308;2022-12-10T03:48:45;2.40;99.90
39889;DHT22;25563;50.844;4.308;2022-12-10T03:51:11;2.30;99.90
39889;DHT22;25563;50.844;4.308;2022-12-10T03:53:37;2.80;99.90
39889;DHT22;25563;50.844;4.308;2022-12-10T03:56:03;2.40;99.90
39889;DHT22;25563;50.844;4.308;2022-12-10T03:58:29;2.40;99.90
39889;DHT22;25563;50.844;4.308;2022-12-10T04:00:55;2.50;99.90
39889;DHT22;25563;50.844;4.308;2022-12-10T04:03:20;2.50;99.90
39889;DHT22;25563;50.844;4.308;2022-12-10T04:05:46;2.50;99.90
39889;DHT22;25563;50.844;4.308;2022-12-10T04:08:13;1.70;99.90
39889;DHT22;25563;50.844;4.308;2022-12-10T04:10:38;3.00;99.90
39889;DHT22;25563;50.844;4.308;2022-12-10T04:13:04;2.40;99.90
39889;DHT22;25563;50.844;4.308;2022-12-10T04:15:48;2.40;99.90
39889;DHT22;25563;50.844;4.308;2022-12-10T04:18:33;2.40;99.90
39889;DHT22;25563;50.844;4.308;2022-12-10T04:20:59;2.30;99.90
39889;DHT22;25563;50.844;4.308;2022-12-10T04:23:43;2.30;99.90
39889;DHT22;25563;50.844;4.308;2022-12-10T04:26:27;1.80;99.90
39889;DHT22;25563;50.844;4.308;2022-12-10T04:29:12;2.30;99.90
39889;DHT22;25563;50.844;4.308;2022-12-10T04:31:38;2.30;99.90
39889;DHT22;25563;50.844;4.308;2022-12-10T04:34:04;2.20;99.90
39889;DHT22;25563;50.844;4.308;2022-12-10T04:36:29;2.20;99.90
39889;DHT22;25563;50.844;4.308;2022-12-10T04:38:55;2.20;99.90
39889;DHT22;25563;50.844;4.308;2022-12-10T04:41:21;2.20;99.90
39889;DHT22;25563;50.844;4.308;2022-12-10T04:43:47;2.30;99.90
39889;DHT22;25563;50.844;4.308;2022-12-10T04:46:13;2.30;99.90
39889;DHT22;25563;50.844;4.308;2022-12-10T04:48:39;2.40;99.90
39889;DHT22;25563;50.844;4.308;2022-12-10T04:51:05;1.80;99.90
39889;DHT22;25563;50.844;4.308;2022-12-10T04:53:34;2.30;99.90
39889;DHT22;25563;50.844;4.308;2022-12-10T04:55:59;2.20;99.90
39889;DHT22;25563;50.844;4.308;2022-12-10T04:58:27;2.30;99.90
39889;DHT22;25563;50.844;4.308;2022-12-10T05:01:07;2.20;99.90
39889;DHT22;25563;50.844;4.308;2022-12-10T05:03:34;2.60;99.90
39889;DHT22;25563;50.844;4.308;2022-12-10T05:06:05;2.30;99.90
39889;DHT22;25563;50.844;4.308;2022-12-10T05:08:32;2.30;99.90
39889;DHT22;25563;50.844;4.308;2022-12-10T05:11:06;2.30;99.90
39889;DHT22;25563;50.844;4.308;2022-12-10T05:13:32;2.20;99.90
39889;DHT22;25563;50.844;4.308;2022-12-10T05:15:59;2.30;99.90
39889;DHT22;25563;50.844;4.308;2022-12-10T05:18:28;2.20;99.90
39889;DHT22;25563;50.844;4.308;2022-12-10T05:20:54;2.10;99.90
39889;DHT22;25563;50.844;4.308;2022-12-10T05:23:20;2.10;99.90
39889;DHT22;25563;50.844;4.308;2022-12-10T05:26:09;2.10;99.90
39889;DHT22;25563;50.844;4.308;2022-12-10T05:28:44;2.10;99.90
39889;DHT22;25563;50.844;4.308;2022-12-10T05:31:22;2.10;99.90
39889;DHT22;25563;50.844;4.308;2022-12-10T05:33:48;2.20;99.90
39889;DHT22;25563;50.844;4.308;2022-12-10T05:36:16;2.20;99.90
39889;DHT22;25563;50.844;4.308;2022-12-10T05:38:43;2.50;99.90
39889;DHT22;25563;50.844;4.308;2022-12-10T05:41:12;2.20;99.90
39889;DHT22;25563;50.844;4.308;2022-12-10T05:43:39;2.20;99.90
39889;DHT22;25563;50.844;4.308;2022-12-10T05:46:07;2.20;99.90
39889;DHT22;25563;50.844;4.308;2022-12-10T05:48:34;2.10;99.90
39889;DHT22;25563;50.844;4.308;2022-12-10T05:51:08;3.10;99.90
39889;DHT22;25563;50.844;4.308;2022-12-10T05:53:34;2.00;99.90
39889;DHT22;25563;50.844;4.308;2022-12-10T05:56:08;2.10;99.90
39889;DHT22;25563;50.844;4.308;2022-12-10T05:58:34;2.00;99.90
39889;DHT22;25563;50.844;4.308;2022-12-10T06:01:07;2.00;99.90
39889;DHT22;25563;50.844;4.308;2022-12-10T06:03:33;2.00;99.90
39889;DHT22;25563;50.844;4.308;2022-12-10T06:05:59;2.00;99.90
39889;DHT22;25563;50.844;4.308;2022-12-10T06:08:26;2.10;99.90
39889;DHT22;25563;50.844;4.308;2022-12-10T06:10:52;2.30;99.90
39889;DHT22;25563;50.844;4.308;2022-12-10T06:13:19;2.10;99.90
39889;DHT22;25563;50.844;4.308;2022-12-10T06:15:45;2.10;99.90
39889;DHT22;25563;50.844;4.308;2022-12-10T06:18:11;2.00;99.90
39889;DHT22;25563;50.844;4.308;2022-12-10T06:20:38;2.00;99.90
39889;DHT22;25563;50.844;4.308;2022-12-10T06:23:04;2.00;99.90
39889;DHT22;25563;50.844;4.308;2022-12-10T06:25:30;2.00;99.90
39889;DHT22;25563;50.844;4.308;2022-12-10T06:27:56;3.10;99.90
39889;DHT22;25563;50.844;4.308;2022-12-10T06:30:22;2.00;99.90
39889;DHT22;25563;50.844;4.308;2022-12-10T06:32:47;2.00;99.90
39889;DHT22;25563;50.844;4.308;2022-12-10T06:35:13;2.00;99.90
39889;DHT22;25563;50.844;4.308;2022-12-10T06:37:39;3.00;99.90
39889;DHT22;25563;50.844;4.308;2022-12-10T06:40:06;2.10;99.90
39889;DHT22;25563;50.844;4.308;2022-12-10T06:42:31;2.10;99.90
39889;DHT22;25563;50.844;4.308;2022-12-10T06:44:57;2.10;99.90
39889;DHT22;25563;50.844;4.308;2022-12-10T06:47:30;2.10;99.90
39889;DHT22;25563;50.844;4.308;2022-12-10T06:49:56;2.10;99.90
39889;DHT22;25563;50.844;4.308;2022-12-10T06:52:21;2.00;99.90
39889;DHT22;25563;50.844;4.308;2022-12-10T06:54:47;1.90;99.90
39889;DHT22;25563;50.844;4.308;2022-12-10T06:57:13;1.90;99.90
39889;DHT22;25563;50.844;4.308;2022-12-10T06:59:38;1.90;99.90
39889;DHT22;25563;50.844;4.308;2022-12-10T07:02:04;1.80;99.90
39889;DHT22;25563;50.844;4.308;2022-12-10T07:04:30;1.70;99.90
39889;DHT22;25563;50.844;4.308;2022-12-10T07:06:56;1.60;99.90
39889;DHT22;25563;50.844;4.308;2022-12-10T07:09:21;1.60;99.90
39889;DHT22;25563;50.844;4.308;2022-12-10T07:11:47;1.50;99.90
39889;DHT22;25563;50.844;4.308;2022-12-10T07:14:15;1.60;99.90
39889;DHT22;25563;50.844;4.308;2022-12-10T07:16:41;1.50;99.90
39889;DHT22;25563;50.844;4.308;2022-12-10T07:19:09;1.50;99.90
39889;DHT22;25563;50.844;4.308;2022-12-10T07:21:39;1.70;99.90
39889;DHT22;25563;50.844;4.308;2022-12-10T07:24:14;1.60;99.90
39889;DHT22;25563;50.844;4.308;2022-12-10T07:26:42;1.70;99.90
39889;DHT22;25563;50.844;4.308;2022-12-10T07:29:15;1.70;99.90
39889;DHT22;25563;50.844;4.308;2022-12-10T07:31:41;1.70;99.90
39889;DHT22;25563;50.844;4.308;2022-12-10T07:34:09;2.80;99.90
39889;DHT22;25563;50.844;4.308;2022-12-10T07:36:35;1.90;99.90
39889;DHT22;25563;50.844;4.308;2022-12-10T07:39:03;1.80;99.90
39889;DHT22;25563;50.844;4.308;2022-12-10T07:41:29;2.10;99.90
39889;DHT22;25563;50.844;4.308;2022-12-10T07:43:55;1.80;99.90
39889;DHT22;25563;50.844;4.308;2022-12-10T07:46:25;1.90;99.90
39889;DHT22;25563;50.844;4.308;2022-12-10T07:48:51;2.50;99.90
39889;DHT22;25563;50.844;4.308;2022-12-10T07:51:19;2.00;99.90
39889;DHT22;25563;50.844;4.308;2022-12-10T07:53:46;2.00;99.90
39889;DHT22;25563;50.844;4.308;2022-12-10T07:56:14;1.90;99.90
39889;DHT22;25563;50.844;4.308;2022-12-10T07:58:44;1.90;99.90
39889;DHT22;25563;50.844;4.308;2022-12-10T08:01:14;1.90;99.90
39889;DHT22;25563;50.844;4.308;2022-12-10T08:03:42;1.90;99.90
39889;DHT22;25563;50.844;4.308;2022-12-10T08:06:11;1.90;99.90
39889;DHT22;25563;50.844;4.308;2022-12-10T08:08:38;1.90;99.90
39889;DHT22;25563;50.844;4.308;2022-12-10T08:11:05;2.00;99.90
39889;DHT22;25563;50.844;4.308;2022-12-10T08:13:33;2.00;99.90
39889;DHT22;25563;50.844;4.308;2022-12-10T08:16:16;2.00;99.90
39889;DHT22;25563;50.844;4.308;2022-12-10T08:18:43;2.00;99.90
39889;DHT22;25563;50.844;4.308;2022-12-10T08:21:11;2.00;99.90
39889;DHT22;25563;50.844;4.308;2022-12-10T08:23:38;2.00;99.90
39889;DHT22;25563;50.844;4.308;2022-12-10T08:26:20;2.00;99.90
39889;DHT22;25563;50.844;4.308;2022-12-10T08:28:48;2.00;99.90
39889;DHT22;25563;50.844;4.308;2022-12-10T08:31:15;1.90;99.90
39889;DHT22;25563;50.844;4.308;2022-12-10T08:33:41;1.90;99.90
39889;DHT22;25563;50.844;4.308;2022-12-10T08:36:09;1.80;99.90
39889;DHT22;25563;50.844;4.308;2022-12-10T08:38:35;1.90;99.90
39889;DHT22;25563;50.844;4.308;2022-12-10T08:41:17;1.80;99.90
39889;DHT22;25563;50.844;4.308;2022-12-10T08:43:44;1.80;99.90
39889;DHT22;25563;50.844;4.308;2022-12-10T08:46:11;2.00;99.90
39889;DHT22;25563;50.844;4.308;2022-12-10T08:48:38;2.00;99.90
39889;DHT22;25563;50.844;4.308;2022-12-10T08:51:05;2.00;99.90
39889;DHT22;25563;50.844;4.308;2022-12-10T08:53:32;2.60;99.90
39889;DHT22;25563;50.844;4.308;2022-12-10T08:55:58;3.20;99.90
39889;DHT22;25563;50.844;4.308;2022-12-10T08:58:24;2.10;99.90
39889;DHT22;25563;50.844;4.308;2022-12-10T09:00:50;2.20;99.90
39889;DHT22;25563;50.844;4.308;2022-12-10T09:03:17;2.10;99.90
39889;DHT22;25563;50.844;4.308;2022-12-10T09:05:43;2.00;99.90
39889;DHT22;25563;50.844;4.308;2022-12-10T09:08:09;2.00;99.90
39889;DHT22;25563;50.844;4.308;2022-12-10T09:10:38;2.00;99.90
39889;DHT22;25563;50.844;4.308;2022-12-10T09:13:04;2.10;99.90
39889;DHT22;25563;50.844;4.308;2022-12-10T09:15:30;2.20;99.90
39889;DHT22;25563;50.844;4.308;2022-12-10T09:17:56;3.30;99.90
39889;DHT22;25563;50.844;4.308;2022-12-10T09:20:23;1.60;99.90
39889;DHT22;25563;50.844;4.308;2022-12-10T09:22:49;3.60;99.90
39889;DHT22;25563;50.844;4.308;2022-12-10T09:25:15;1.00;99.90
39889;DHT22;25563;50.844;4.308;2022-12-10T09:27:43;2.30;99.90
39889;DHT22;25563;50.844;4.308;2022-12-10T09:30:10;2.50;99.90
39889;DHT22;25563;50.844;4.308;2022-12-10T09:32:37;2.30;99.90
39889;DHT22;25563;50.844;4.308;2022-12-10T09:35:04;2.40;99.90
39889;DHT22;25563;50.844;4.308;2022-12-10T09:37:33;2.40;99.90
39889;DHT22;25563;50.844;4.308;2022-12-10T09:39:58;2.40;99.90
39889;DHT22;25563;50.844;4.308;2022-12-10T09:51:19;2.30;99.90
39889;DHT22;25563;50.844;4.308;2022-12-10T09:53:48;2.40;99.90
39889;DHT22;25563;50.844;4.308;2022-12-10T09:56:22;3.50;99.90
39889;DHT22;25563;50.844;4.308;2022-12-10T09:58:49;2.70;99.90
39889;DHT22;25563;50.844;4.308;2022-12-10T10:01:19;2.60;99.90
39889;DHT22;25563;50.844;4.308;2022-12-10T10:03:45;2.50;99.90
39889;DHT22;25563;50.844;4.308;2022-12-10T10:06:13;2.50;99.90
39889;DHT22;25563;50.844;4.308;2022-12-10T10:08:46;2.50;99.90
39889;DHT22;25563;50.844;4.308;2022-12-10T10:11:24;2.50;99.90
39889;DHT22;25563;50.844;4.308;2022-12-10T10:14:00;3.40;99.90
39889;DHT22;25563;50.844;4.308;2022-12-10T10:17:03;2.70;99.90
39889;DHT22;25563;50.844;4.308;2022-12-10T10:19:28;2.70;99.90
39889;DHT22;25563;50.844;4.308;2022-12-10T10:21:56;2.80;99.90
39889;DHT22;25563;50.844;4.308;2022-12-10T10:24:28;2.10;99.90
39889;DHT22;25563;50.844;4.308;2022-12-10T10:29:36;2.90;99.90
39889;DHT22;25563;50.844;4.308;2022-12-10T10:33:07;2.80;99.90
39889;DHT22;25563;50.844;4.308;2022-12-10T10:35:33;2.90;99.90
39889;DHT22;25563;50.844;4.308;2022-12-10T10:38:08;2.90;99.90
39889;DHT22;25563;50.844;4.308;2022-12-10T10:40:40;3.00;99.90
39889;DHT22;25563;50.844;4.308;2022-12-10T10:43:14;3.00;99.90
39889;DHT22;25563;50.844;4.308;2022-12-10T10:45:42;3.00;99.90
39889;DHT22;25563;50.844;4.308;2022-12-10T10:48:16;3.00;99.90
39889;DHT22;25563;50.844;4.308;2022-12-10T10:50:53;3.10;99.90
39889;DHT22;25563;50.844;4.308;2022-12-10T10:56:18;3.10;99.90
39889;DHT22;25563;50.844;4.308;2022-12-10T10:59:22;3.20;99.90
39889;DHT22;25563;50.844;4.308;2022-12-10T11:02:04;3.20;99.90
39889;DHT22;25563;50.844;4.308;2022-12-10T11:04:45;3.30;99.90
39889;DHT22;25563;50.844;4.308;2022-12-10T11:07:26;3.30;99.90
39889;DHT22;25563;50.844;4.308;2022-12-10T11:09:59;3.40;99.90
39889;DHT22;25563;50.844;4.308;2022-12-10T11:12:38;3.40;99.90
39889;DHT22;25563;50.844;4.308;2022-12-10T11:15:29;3.40;99.90
39889;DHT22;25563;50.844;4.308;2022-12-10T11:17:56;3.40;99.90
39889;DHT22;25563;50.844;4.308;2022-12-10T11:20:25;3.40;99.90
39889;DHT22;25563;50.844;4.308;2022-12-10T11:25:25;3.30;99.90
39889;DHT22;25563;50.844;4.308;2022-12-10T11:28:24;4.50;99.90
39889;DHT22;25563;50.844;4.308;2022-12-10T11:31:17;3.50;99.90
39889;DHT22;25563;50.844;4.308;2022-12-10T11:36:41;3.60;99.90
39889;DHT22;25563;50.844;4.308;2022-12-10T11:45:24;3.60;99.90
39889;DHT22;25563;50.844;4.308;2022-12-10T11:50:48;3.60;99.90
39889;DHT22;25563;50.844;4.308;2022-12-10T12:09:42;3.60;99.90
39889;DHT22;25563;50.844;4.308;2022-12-10T12:15:03;3.70;99.90
39889;DHT22;25563;50.844;4.308;2022-12-10T12:17:41;3.80;99.90
39889;DHT22;25563;50.844;4.308;2022-12-10T12:22:41;4.00;99.90
39889;DHT22;25563;50.844;4.308;2022-12-10T12:25:27;4.00;99.90
39889;DHT22;25563;50.844;4.308;2022-12-10T12:31:07;3.70;99.90
39889;DHT22;25563;50.844;4.308;2022-12-10T12:33:43;3.70;99.90
39889;DHT22;25563;50.844;4.308;2022-12-10T12:36:21;3.50;99.90
39889;DHT22;25563;50.844;4.308;2022-12-10T12:38:56;3.80;99.90
39889;DHT22;25563;50.844;4.308;2022-12-10T12:44:22;3.70;99.90
39889;DHT22;25563;50.844;4.308;2022-12-10T12:46:55;3.70;99.90
39889;DHT22;25563;50.844;4.308;2022-12-10T12:49:34;3.70;99.90
39889;DHT22;25563;50.844;4.308;2022-12-10T12:54:56;3.80;99.90
39889;DHT22;25563;50.844;4.308;2022-12-10T12:57:30;3.80;99.90
39889;DHT22;25563;50.844;4.308;2022-12-10T13:05:28;3.90;99.90
39889;DHT22;25563;50.844;4.308;2022-12-10T13:13:40;3.80;99.90
39889;DHT22;25563;50.844;4.308;2022-12-10T13:30:01;4.00;99.90
39889;DHT22;25563;50.844;4.308;2022-12-10T13:35:22;4.00;99.90
39889;DHT22;25563;50.844;4.308;2022-12-10T13:40:37;3.00;99.90
39889;DHT22;25563;50.844;4.308;2022-12-10T13:43:39;4.00;99.90
39889;DHT22;25563;50.844;4.308;2022-12-10T13:49:19;4.00;99.90
39889;DHT22;25563;50.844;4.308;2022-12-10T13:51:58;3.90;99.90
39889;DHT22;25563;50.844;4.308;2022-12-10T13:59:59;3.90;99.90
39889;DHT22;25563;50.844;4.308;2022-12-10T14:05:24;3.90;99.90
39889;DHT22;25563;50.844;4.308;2022-12-10T14:07:55;3.90;99.90
39889;DHT22;25563;50.844;4.308;2022-12-10T14:10:34;3.90;99.90
39889;DHT22;25563;50.844;4.308;2022-12-10T14:13:03;3.90;99.90
39889;DHT22;25563;50.844;4.308;2022-12-10T14:15:29;3.90;99.90
39889;DHT22;25563;50.844;4.308;2022-12-10T14:18:16;3.90;99.90
39889;DHT22;25563;50.844;4.308;2022-12-10T14:20:47;4.10;99.90
39889;DHT22;25563;50.844;4.308;2022-12-10T14:23:32;4.00;99.90
39889;DHT22;25563;50.844;4.308;2022-12-10T14:26:12;4.00;99.90
39889;DHT22;25563;50.844;4.308;2022-12-10T14:28:45;4.00;99.90
39889;DHT22;25563;50.844;4.308;2022-12-10T14:31:18;4.00;99.90
39889;DHT22;25563;50.844;4.308;2022-12-10T14:33:48;4.00;99.90
39889;DHT22;25563;50.844;4.308;2022-12-10T14:36:21;4.00;99.90
39889;DHT22;25563;50.844;4.308;2022-12-10T14:38:49;4.10;99.90
39889;DHT22;25563;50.844;4.308;2022-12-10T14:41:18;3.40;99.90
39889;DHT22;25563;50.844;4.308;2022-12-10T14:43:45;4.10;99.90
39889;DHT22;25563;50.844;4.308;2022-12-10T14:46:18;4.10;99.90
39889;DHT22;25563;50.844;4.308;2022-12-10T14:48:49;4.10;99.90
39889;DHT22;25563;50.844;4.308;2022-12-10T14:51:30;4.10;99.90
39889;DHT22;25563;50.844;4.308;2022-12-10T14:53:57;4.10;99.90
39889;DHT22;25563;50.844;4.308;2022-12-10T14:56:35;4.20;99.90
39889;DHT22;25563;50.844;4.308;2022-12-10T14:59:14;4.20;99.90
39889;DHT22;25563;50.844;4.308;2022-12-10T15:01:47;4.20;99.90
39889;DHT22;25563;50.844;4.308;2022-12-10T15:04:16;4.20;99.90
39889;DHT22;25563;50.844;4.308;2022-12-10T15:06:43;4.20;99.90
39889;DHT22;25563;50.844;4.308;2022-12-10T15:09:16;4.20;99.90
39889;DHT22;25563;50.844;4.308;2022-12-10T15:11:44;4.20;99.90
39889;DHT22;25563;50.844;4.308;2022-12-10T15:14:17;4.20;99.90
39889;DHT22;25563;50.844;4.308;2022-12-10T15:16:45;4.20;99.90
39889;DHT22;25563;50.844;4.308;2022-12-10T15:19:38;4.30;99.90
39889;DHT22;25563;50.844;4.308;2022-12-10T15:22:21;4.30;99.90
39889;DHT22;25563;50.844;4.308;2022-12-10T15:24:47;4.30;99.90
39889;DHT22;25563;50.844;4.308;2022-12-10T15:27:21;4.20;99.90
39889;DHT22;25563;50.844;4.308;2022-12-10T15:29:47;4.20;99.90
39889;DHT22;25563;50.844;4.308;2022-12-10T15:32:22;4.90;99.90
39889;DHT22;25563;50.844;4.308;2022-12-10T15:35:00;4.10;99.90
39889;DHT22;25563;50.844;4.308;2022-12-10T15:37:34;4.10;99.90
39889;DHT22;25563;50.844;4.308;2022-12-10T15:40:03;4.00;99.90
39889;DHT22;25563;50.844;4.308;2022-12-10T15:42:43;4.00;99.90
39889;DHT22;25563;50.844;4.308;2022-12-10T15:47:38;4.00;99.90
39889;DHT22;25563;50.844;4.308;2022-12-10T15:50:04;4.00;99.90
39889;DHT22;25563;50.844;4.308;2022-12-10T15:52:31;4.00;99.90
39889;DHT22;25563;50.844;4.308;2022-12-10T15:55:00;4.10;99.90
39889;DHT22;25563;50.844;4.308;2022-12-10T15:57:36;4.10;99.90
39889;DHT22;25563;50.844;4.308;2022-12-10T16:00:07;4.10;99.90
39889;DHT22;25563;50.844;4.308;2022-12-10T16:02:53;4.10;99.90
39889;DHT22;25563;50.844;4.308;2022-12-10T16:05:26;4.10;99.90
39889;DHT22;25563;50.844;4.308;2022-12-10T16:07:55;4.10;99.90
39889;DHT22;25563;50.844;4.308;2022-12-10T16:10:24;4.10;99.90
39889;DHT22;25563;50.844;4.308;2022-12-10T16:13:04;4.10;99.90
39889;DHT22;25563;50.844;4.308;2022-12-10T16:15:33;4.10;99.90
39889;DHT22;25563;50.844;4.308;2022-12-10T16:18:04;4.10;99.90
39889;DHT22;25563;50.844;4.308;2022-12-10T16:20:30;4.10;99.90
39889;DHT22;25563;50.844;4.308;2022-12-10T16:22:58;4.00;99.90
39889;DHT22;25563;50.844;4.308;2022-12-10T16:25:28;3.90;99.90
39889;DHT22;25563;50.844;4.308;2022-12-10T16:27:54;3.90;99.90
39889;DHT22;25563;50.844;4.308;2022-12-10T16:30:33;3.90;99.90
39889;DHT22;25563;50.844;4.308;2022-12-10T16:33:00;3.90;99.90
39889;DHT22;25563;50.844;4.308;2022-12-10T16:35:25;4.00;99.90
39889;DHT22;25563;50.844;4.308;2022-12-10T16:37:51;3.90;99.90
39889;DHT22;25563;50.844;4.308;2022-12-10T16:40:22;3.90;99.90
39889;DHT22;25563;50.844;4.308;2022-12-10T16:42:48;3.90;99.90
39889;DHT22;25563;50.844;4.308;2022-12-10T16:45:21;3.90;99.90
39889;DHT22;25563;50.844;4.308;2022-12-10T16:47:49;3.90;99.90
39889;DHT22;25563;50.844;4.308;2022-12-10T16:50:16;3.90;99.90
39889;DHT22;25563;50.844;4.308;2022-12-10T16:52:42;3.90;99.90
39889;DHT22;25563;50.844;4.308;2022-12-10T16:55:13;3.90;99.90
39889;DHT22;25563;50.844;4.308;2022-12-10T16:57:40;4.00;99.90
39889;DHT22;25563;50.844;4.308;2022-12-10T17:00:07;4.00;99.90
39889;DHT22;25563;50.844;4.308;2022-12-10T17:02:32;4.00;99.90
39889;DHT22;25563;50.844;4.308;2022-12-10T17:04:59;4.00;99.90
39889;DHT22;25563;50.844;4.308;2022-12-10T17:07:25;4.00;99.90
39889;DHT22;25563;50.844;4.308;2022-12-10T17:09:50;4.10;99.90
39889;DHT22;25563;50.844;4.308;2022-12-10T17:12:16;4.10;99.90
39889;DHT22;25563;50.844;4.308;2022-12-10T17:14:43;4.10;99.90
39889;DHT22;25563;50.844;4.308;2022-12-10T17:17:13;4.10;99.90
39889;DHT22;25563;50.844;4.308;2022-12-10T17:19:41;4.10;99.90
39889;DHT22;25563;50.844;4.308;2022-12-10T17:22:08;4.20;99.90
39889;DHT22;25563;50.844;4.308;2022-12-10T17:24:35;4.20;99.90
39889;DHT22;25563;50.844;4.308;2022-12-10T17:27:13;4.10;99.90
39889;DHT22;25563;50.844;4.308;2022-12-10T17:29:41;4.10;99.90
39889;DHT22;25563;50.844;4.308;2022-12-10T17:32:13;4.20;99.90
39889;DHT22;25563;50.844;4.308;2022-12-10T17:34:39;4.20;99.90
39889;DHT22;25563;50.844;4.308;2022-12-10T17:37:13;4.20;99.90
39889;DHT22;25563;50.844;4.308;2022-12-10T17:39:39;4.20;99.90
39889;DHT22;25563;50.844;4.308;2022-12-10T17:42:05;4.20;99.90
39889;DHT22;25563;50.844;4.308;2022-12-10T17:44:33;4.20;99.90
39889;DHT22;25563;50.844;4.308;2022-12-10T17:47:01;4.20;99.90
39889;DHT22;25563;50.844;4.308;2022-12-10T17:49:28;4.20;99.90
39889;DHT22;25563;50.844;4.308;2022-12-10T17:51:56;4.30;99.90
39889;DHT22;25563;50.844;4.308;2022-12-10T17:54:25;4.20;99.90
39889;DHT22;25563;50.844;4.308;2022-12-10T17:56:51;4.30;99.90
39889;DHT22;25563;50.844;4.308;2022-12-10T17:59:18;4.30;99.90
39889;DHT22;25563;50.844;4.308;2022-12-10T18:01:44;4.30;99.90
39889;DHT22;25563;50.844;4.308;2022-12-10T18:04:10;4.40;99.90
39889;DHT22;25563;50.844;4.308;2022-12-10T18:06:35;4.40;99.90
39889;DHT22;25563;50.844;4.308;2022-12-10T18:09:02;4.40;99.90
39889;DHT22;25563;50.844;4.308;2022-12-10T18:11:32;4.50;99.90
39889;DHT22;25563;50.844;4.308;2022-12-10T18:13:59;4.40;99.90
39889;DHT22;25563;50.844;4.308;2022-12-10T18:16:31;4.40;99.90
39889;DHT22;25563;50.844;4.308;2022-12-10T18:18:59;4.40;99.90